Iberica Hav — C6YI3 — position and weather

sailwx.info

Track history (hours):
 
Tides and Currents Weather Stations Pressure Air Temp Water Temp Dewpoint Dewpoint Depression Visibility Wind Speed Wind Dir Waves Ship Positions

Iberica Hav

Last reported at 2015-Jul-24 03:17 UTC. Time now 2015-Jul-28 05:53 UTC.
Position N 58°34' W 002°58'.

Length 88 m; draft 3.5 m.

Type: Cargo ship. MMSI: 311034400.

Date/timePositionNaut miles runAvg speedWind from/ knotsBaromVisibWave heightAir tempDewpointWater temp
2015-Jul-24 03:17N 58°34' W 002°58'810.7
2015-Jul-24 02:33N 58°41' W 003°02'1110.9
2015-Jul-24 01:31N 58°42' W 003°24'9 9.6
2015-Jul-24 00:34N 58°42' W 003°42'9 9.1
2015-Jul-23 23:33N 58°41' W 003°59'9 9.0
2015-Jul-23 22:33N 58°40' W 004°16'190 7.0
2015-Jul-22 19:33N 55°45' W 006°33'8 7.7
2015-Jul-22 18:34N 55°38' W 006°28'9 9.4
2015-Jul-22 17:34N 55°31' W 006°17'9 9.3
2015-Jul-22 16:33N 55°25' W 006°05'9 9.1
2015-Jul-22 15:34N 55°17' W 005°55'8 8.4
2015-Jul-22 14:33N 55°10' W 005°49'16 7.5
2015-Jul-22 12:24N 54°55' W 005°38'6 7.1
2015-Jul-22 11:33N 54°49' W 005°34'7 7.3
2015-Jul-22 10:34N 54°42' W 005°30'8 7.6
2015-Jul-22 09:34N 54°35' W 005°26'9 8.5
2015-Jul-22 08:33N 54°27' W 005°22'9 8.8
2015-Jul-22 07:33N 54°18' W 005°23'142 8.4
2015-Jul-21 14:34N 52°03' W 006°40'9 9.5
2015-Jul-21 13:34N 52°06' W 006°54'8 7.8
2015-Jul-21 12:33N 52°14' W 006°57'4 3.9
2015-Jul-21 11:33N 52°16' W 007°02'0 0.0
2015-Jul-21 10:34N 52°16' W 007°02'0 0.0
2015-Jul-21 09:34N 52°16' W 007°02'0 0.0
2015-Jul-21 08:27N 52°16' W 007°02'0 0.0
2015-Jul-21 07:28N 52°16' W 007°02'0 0.0
2015-Jul-21 06:33N 52°16' W 007°02'0 0.0
2015-Jul-21 05:33N 52°16' W 007°02'0 0.0
2015-Jul-21 04:33N 52°16' W 007°02'0 0.0
2015-Jul-21 03:33N 52°16' W 007°02'0 0.0
2015-Jul-21 02:33N 52°16' W 007°02'0 0.0
2015-Jul-21 01:33N 52°16' W 007°02'0 0.0
2015-Jul-21 00:33N 52°16' W 007°02'0 0.0
2015-Jul-20 23:33N 52°16' W 007°02'0 0.0
2015-Jul-20 22:33N 52°16' W 007°02'0 0.0
2015-Jul-20 21:33N 52°16' W 007°02'0 0.0
2015-Jul-20 18:21N 52°16' W 007°02'0 0.0
2015-Jul-20 17:33N 52°16' W 007°02'0 0.0
2015-Jul-20 16:33N 52°16' W 007°02'0 0.0
2015-Jul-20 15:33N 52°16' W 007°02'0 0.0
2015-Jul-20 13:09N 52°16' W 007°02'0 0.0
2015-Jul-20 12:33N 52°16' W 007°02'0 0.0
2015-Jul-20 11:33N 52°16' W 007°02'0 0.0
2015-Jul-20 10:33N 52°16' W 007°02'0 0.0
2015-Jul-20 09:33N 52°16' W 007°02'0 0.0
2015-Jul-20 08:30N 52°16' W 007°02'0 0.0
2015-Jul-20 07:27N 52°16' W 007°02'0 0.0
2015-Jul-20 06:33N 52°16' W 007°02'0 0.0
2015-Jul-20 05:33N 52°16' W 007°02'0 0.0
2015-Jul-20 04:33N 52°16' W 007°02'0 0.0
2015-Jul-20 03:33N 52°16' W 007°02'0 0.0
2015-Jul-20 02:33N 52°16' W 007°02'0 0.0
2015-Jul-20 01:33N 52°16' W 007°02'0 0.0
2015-Jul-20 00:33N 52°16' W 007°02'0 0.0
2015-Jul-19 23:33N 52°16' W 007°02'0 0.0
2015-Jul-19 22:33N 52°16' W 007°02'0 0.0
2015-Jul-19 21:24N 52°16' W 007°02'0 0.0
2015-Jul-19 19:18N 52°16' W 007°02'0 0.0
2015-Jul-19 18:33N 52°16' W 007°02'0 0.0
2015-Jul-19 17:30N 52°16' W 007°02'0 0.0
2015-Jul-19 16:33N 52°16' W 007°02'0 0.0
2015-Jul-19 15:33N 52°16' W 007°02'0 0.0
2015-Jul-19 14:33N 52°16' W 007°02'0 0.0
2015-Jul-19 13:33N 52°16' W 007°02'0 0.0
2015-Jul-19 12:33N 52°16' W 007°02'0 0.0
2015-Jul-19 11:33N 52°16' W 007°02'0 0.0
2015-Jul-19 10:33N 52°16' W 007°02'0 0.0
2015-Jul-19 09:33N 52°16' W 007°02'0 0.0
2015-Jul-19 08:33N 52°16' W 007°02'0 0.0
2015-Jul-19 07:33N 52°16' W 007°02'0 0.0
2015-Jul-19 06:33N 52°16' W 007°02'0 0.0
2015-Jul-19 05:33N 52°16' W 007°02'0 0.0
2015-Jul-19 04:33N 52°16' W 007°02'0 0.0
2015-Jul-19 00:33N 52°16' W 007°02'0 0.0
2015-Jul-18 23:33N 52°16' W 007°02'0 0.0
2015-Jul-18 22:33N 52°16' W 007°02'0 0.0
2015-Jul-18 19:33N 52°16' W 007°02'0 0.0
2015-Jul-18 18:27N 52°16' W 007°02'0 0.0
2015-Jul-18 17:33N 52°16' W 007°02'0 0.0
2015-Jul-18 16:33N 52°16' W 007°02'0 0.0
2015-Jul-18 15:33N 52°16' W 007°02'0 0.0
2015-Jul-18 14:33N 52°16' W 007°02'0 0.0
2015-Jul-18 13:33N 52°16' W 007°02'0 0.0
2015-Jul-18 12:33N 52°16' W 007°02'0 0.0
2015-Jul-18 11:33N 52°16' W 007°02'0 0.0
2015-Jul-18 10:27N 52°16' W 007°02'0 0.0
2015-Jul-18 09:27N 52°16' W 007°02'0 0.0
2015-Jul-18 08:33N 52°16' W 007°02'0 0.0
2015-Jul-18 07:33N 52°16' W 007°02'0 0.0
2015-Jul-18 06:33N 52°16' W 007°02'0 0.0
2015-Jul-18 05:33N 52°16' W 007°02'0 0.0
2015-Jul-18 04:33N 52°16' W 007°02'0 0.0
2015-Jul-18 03:33N 52°16' W 007°02'0 0.0
2015-Jul-18 02:33N 52°16' W 007°02'0 0.0
2015-Jul-18 01:33N 52°16' W 007°02'0 0.0
2015-Jul-18 00:33N 52°16' W 007°02'0 0.0
2015-Jul-17 23:33N 52°16' W 007°02'0 0.0
2015-Jul-17 22:33N 52°16' W 007°02'0 0.0
2015-Jul-17 21:33N 52°16' W 007°02'0 0.0
2015-Jul-17 20:33N 52°16' W 007°02'0 0.0
2015-Jul-17 19:33N 52°16' W 007°02'0 0.0
2015-Jul-17 18:33N 52°16' W 007°02'0 0.0
2015-Jul-17 16:09N 52°16' W 007°02'0 0.0
2015-Jul-17 15:33N 52°16' W 007°02'0 0.0
2015-Jul-17 14:24N 52°16' W 007°02'0 0.0
2015-Jul-17 13:33N 52°16' W 007°02'0 0.0
2015-Jul-17 12:30N 52°16' W 007°02'0 0.0
2015-Jul-17 11:33N 52°16' W 007°02'0 0.0
2015-Jul-17 10:33N 52°16' W 007°02'0 0.0
2015-Jul-17 09:27N 52°16' W 007°02'0 0.0
2015-Jul-17 08:33N 52°16' W 007°02'0 0.0
2015-Jul-17 07:33N 52°16' W 007°02'0 0.0
2015-Jul-17 06:33N 52°16' W 007°02'0 0.0
2015-Jul-17 05:33N 52°16' W 007°02'0 0.0
2015-Jul-17 04:33N 52°16' W 007°02'0 0.0
2015-Jul-17 03:33N 52°16' W 007°02'0 0.0
2015-Jul-17 02:33N 52°16' W 007°02'0 0.0
2015-Jul-17 01:33N 52°16' W 007°02'0 0.0
2015-Jul-17 00:27N 52°16' W 007°02'0 0.0
2015-Jul-16 23:33N 52°16' W 007°02'0 0.0
2015-Jul-16 22:33N 52°16' W 007°02'0 0.0
2015-Jul-16 21:33N 52°16' W 007°02'0 0.0
2015-Jul-16 20:33N 52°16' W 007°02'0 0.0
2015-Jul-16 19:33N 52°16' W 007°02'0 0.0
2015-Jul-16 18:33N 52°16' W 007°02'0 0.0
2015-Jul-16 17:33N 52°16' W 007°02'0 0.0
2015-Jul-16 16:24N 52°16' W 007°02'0 0.0
2015-Jul-16 15:33N 52°16' W 007°02'0 0.1
2015-Jul-16 14:33N 52°16' W 007°02'7 7.3
2015-Jul-16 13:33N 52°09' W 006°58'9 9.2
2015-Jul-16 12:33N 52°04' W 006°45'155 9.0
2015-Jul-15 19:22N 54°07' W 004°08'  
Track history (hours):
 
Tides and Currents Weather Stations Pressure Air Temp Water Temp Dewpoint Dewpoint Depression Visibility Wind Speed Wind Dir Waves Ship Positions

Iberica Hav

Last reported at 2015-Jul-24 03:17 UTC. Time now 2015-Jul-28 05:53 UTC.
Position N 58°34' W 002°58'.

Length 88 m; draft 3.5 m.

Type: Cargo ship. MMSI: 311034400.

Date/timePositionNaut miles runAvg speedWind from/ knotsBaromVisibWave heightAir tempDewpointWater temp
2015-Jul-24 03:17N 58°34' W 002°58'810.7
2015-Jul-24 02:33N 58°41' W 003°02'1110.9
2015-Jul-24 01:31N 58°42' W 003°24'9 9.6
2015-Jul-24 00:34N 58°42' W 003°42'9 9.1
2015-Jul-23 23:33N 58°41' W 003°59'9 9.0
2015-Jul-23 22:33N 58°40' W 004°16'190 7.0
2015-Jul-22 19:33N 55°45' W 006°33'8 7.7
2015-Jul-22 18:34N 55°38' W 006°28'9 9.4
2015-Jul-22 17:34N 55°31' W 006°17'9 9.3
2015-Jul-22 16:33N 55°25' W 006°05'9 9.1
2015-Jul-22 15:34N 55°17' W 005°55'8 8.4
2015-Jul-22 14:33N 55°10' W 005°49'16 7.5
2015-Jul-22 12:24N 54°55' W 005°38'6 7.1
2015-Jul-22 11:33N 54°49' W 005°34'7 7.3
2015-Jul-22 10:34N 54°42' W 005°30'8 7.6
2015-Jul-22 09:34N 54°35' W 005°26'9 8.5
2015-Jul-22 08:33N 54°27' W 005°22'9 8.8
2015-Jul-22 07:33N 54°18' W 005°23'142 8.4
2015-Jul-21 14:34N 52°03' W 006°40'9 9.5
2015-Jul-21 13:34N 52°06' W 006°54'8 7.8
2015-Jul-21 12:33N 52°14' W 006°57'4 3.9
2015-Jul-21 11:33N 52°16' W 007°02'0 0.0
2015-Jul-21 10:34N 52°16' W 007°02'0 0.0
2015-Jul-21 09:34N 52°16' W 007°02'0 0.0
2015-Jul-21 08:27N 52°16' W 007°02'0 0.0
2015-Jul-21 07:28N 52°16' W 007°02'0 0.0
2015-Jul-21 06:33N 52°16' W 007°02'0 0.0
2015-Jul-21 05:33N 52°16' W 007°02'0 0.0
2015-Jul-21 04:33N 52°16' W 007°02'0 0.0
2015-Jul-21 03:33N 52°16' W 007°02'0 0.0
2015-Jul-21 02:33N 52°16' W 007°02'0 0.0
2015-Jul-21 01:33N 52°16' W 007°02'0 0.0
2015-Jul-21 00:33N 52°16' W 007°02'0 0.0
2015-Jul-20 23:33N 52°16' W 007°02'0 0.0
2015-Jul-20 22:33N 52°16' W 007°02'0 0.0
2015-Jul-20 21:33N 52°16' W 007°02'0 0.0
2015-Jul-20 18:21N 52°16' W 007°02'0 0.0
2015-Jul-20 17:33N 52°16' W 007°02'0 0.0
2015-Jul-20 16:33N 52°16' W 007°02'0 0.0
2015-Jul-20 15:33N 52°16' W 007°02'0 0.0
2015-Jul-20 13:09N 52°16' W 007°02'0 0.0
2015-Jul-20 12:33N 52°16' W 007°02'0 0.0
2015-Jul-20 11:33N 52°16' W 007°02'0 0.0
2015-Jul-20 10:33N 52°16' W 007°02'0 0.0
2015-Jul-20 09:33N 52°16' W 007°02'0 0.0
2015-Jul-20 08:30N 52°16' W 007°02'0 0.0
2015-Jul-20 07:27N 52°16' W 007°02'0 0.0
2015-Jul-20 06:33N 52°16' W 007°02'0 0.0
2015-Jul-20 05:33N 52°16' W 007°02'0 0.0
2015-Jul-20 04:33N 52°16' W 007°02'0 0.0
2015-Jul-20 03:33N 52°16' W 007°02'0 0.0
2015-Jul-20 02:33N 52°16' W 007°02'0 0.0
2015-Jul-20 01:33N 52°16' W 007°02'0 0.0
2015-Jul-20 00:33N 52°16' W 007°02'0 0.0
2015-Jul-19 23:33N 52°16' W 007°02'0 0.0
2015-Jul-19 22:33N 52°16' W 007°02'0 0.0
2015-Jul-19 21:24N 52°16' W 007°02'0 0.0
2015-Jul-19 19:18N 52°16' W 007°02'0 0.0
2015-Jul-19 18:33N 52°16' W 007°02'0 0.0
2015-Jul-19 17:30N 52°16' W 007°02'0 0.0
2015-Jul-19 16:33N 52°16' W 007°02'0 0.0
2015-Jul-19 15:33N 52°16' W 007°02'0 0.0
2015-Jul-19 14:33N 52°16' W 007°02'0 0.0
2015-Jul-19 13:33N 52°16' W 007°02'0 0.0
2015-Jul-19 12:33N 52°16' W 007°02'0 0.0
2015-Jul-19 11:33N 52°16' W 007°02'0 0.0
2015-Jul-19 10:33N 52°16' W 007°02'0 0.0
2015-Jul-19 09:33N 52°16' W 007°02'0 0.0
2015-Jul-19 08:33N 52°16' W 007°02'0 0.0
2015-Jul-19 07:33N 52°16' W 007°02'0 0.0
2015-Jul-19 06:33N 52°16' W 007°02'0 0.0
2015-Jul-19 05:33N 52°16' W 007°02'0 0.0
2015-Jul-19 04:33N 52°16' W 007°02'0 0.0
2015-Jul-19 00:33N 52°16' W 007°02'0 0.0
2015-Jul-18 23:33N 52°16' W 007°02'0 0.0
2015-Jul-18 22:33N 52°16' W 007°02'0 0.0
2015-Jul-18 19:33N 52°16' W 007°02'0 0.0
2015-Jul-18 18:27N 52°16' W 007°02'0 0.0
2015-Jul-18 17:33N 52°16' W 007°02'0 0.0
2015-Jul-18 16:33N 52°16' W 007°02'0 0.0
2015-Jul-18 15:33N 52°16' W 007°02'0 0.0
2015-Jul-18 14:33N 52°16' W 007°02'0 0.0
2015-Jul-18 13:33N 52°16' W 007°02'0 0.0
2015-Jul-18 12:33N 52°16' W 007°02'0 0.0
2015-Jul-18 11:33N 52°16' W 007°02'0 0.0
2015-Jul-18 10:27N 52°16' W 007°02'0 0.0
2015-Jul-18 09:27N 52°16' W 007°02'0 0.0
2015-Jul-18 08:33N 52°16' W 007°02'0 0.0
2015-Jul-18 07:33N 52°16' W 007°02'0 0.0
2015-Jul-18 06:33N 52°16' W 007°02'0 0.0
2015-Jul-18 05:33N 52°16' W 007°02'0 0.0
2015-Jul-18 04:33N 52°16' W 007°02'0 0.0
2015-Jul-18 03:33N 52°16' W 007°02'0 0.0
2015-Jul-18 02:33N 52°16' W 007°02'0 0.0
2015-Jul-18 01:33N 52°16' W 007°02'0 0.0
2015-Jul-18 00:33N 52°16' W 007°02'0 0.0
2015-Jul-17 23:33N 52°16' W 007°02'0 0.0
2015-Jul-17 22:33N 52°16' W 007°02'0 0.0
2015-Jul-17 21:33N 52°16' W 007°02'0 0.0
2015-Jul-17 20:33N 52°16' W 007°02'0 0.0
2015-Jul-17 19:33N 52°16' W 007°02'0 0.0
2015-Jul-17 18:33N 52°16' W 007°02'0 0.0
2015-Jul-17 16:09N 52°16' W 007°02'0 0.0
2015-Jul-17 15:33N 52°16' W 007°02'0 0.0
2015-Jul-17 14:24N 52°16' W 007°02'0 0.0
2015-Jul-17 13:33N 52°16' W 007°02'0 0.0
2015-Jul-17 12:30N 52°16' W 007°02'0 0.0
2015-Jul-17 11:33N 52°16' W 007°02'0 0.0
2015-Jul-17 10:33N 52°16' W 007°02'0 0.0
2015-Jul-17 09:27N 52°16' W 007°02'0 0.0
2015-Jul-17 08:33N 52°16' W 007°02'0 0.0
2015-Jul-17 07:33N 52°16' W 007°02'0 0.0
2015-Jul-17 06:33N 52°16' W 007°02'0 0.0
2015-Jul-17 05:33N 52°16' W 007°02'0 0.0
2015-Jul-17 04:33N 52°16' W 007°02'0 0.0
2015-Jul-17 03:33N 52°16' W 007°02'0 0.0
2015-Jul-17 02:33N 52°16' W 007°02'0 0.0
2015-Jul-17 01:33N 52°16' W 007°02'0 0.0
2015-Jul-17 00:27N 52°16' W 007°02'0 0.0
2015-Jul-16 23:33N 52°16' W 007°02'0 0.0
2015-Jul-16 22:33N 52°16' W 007°02'0 0.0
2015-Jul-16 21:33N 52°16' W 007°02'0 0.0
2015-Jul-16 20:33N 52°16' W 007°02'0 0.0
2015-Jul-16 19:33N 52°16' W 007°02'0 0.0
2015-Jul-16 18:33N 52°16' W 007°02'0 0.0
2015-Jul-16 17:33N 52°16' W 007°02'0 0.0
2015-Jul-16 16:24N 52°16' W 007°02'0 0.0
2015-Jul-16 15:33N 52°16' W 007°02'0 0.1
2015-Jul-16 14:33N 52°16' W 007°02'7 7.3
2015-Jul-16 13:33N 52°09' W 006°58'9 9.2
2015-Jul-16 12:33N 52°04' W 006°45'155 9.0
2015-Jul-15 19:22N 54°07' W 004°08'  

Dump ship's entire track history